Time;durP1;ratioP1;P1;durP2;ratioP2;P2;SDS_P1;SDS_P2;PMS_P1;PMS_P2;Temp;Humidity;BMP_temperature;BMP_pressure;BME280_temperature;BME280_humidity;BME280_pressure;Samples;Min_cycle;Max_cycle;Signal;HPM_P1;HPM_P2
2022/09/03 00:04:45;;;;;;;5.53;2.90;;;14.30;99.90;;;;;;20817034;28;20112;-83
2022/09/03 00:14:52;;;;;;;5.60;3.65;;;14.50;99.90;;;;;;20834157;28;20434;-82
2022/09/03 00:24:56;;;;;;;3.65;3.08;;;14.50;99.90;;;;;;20734821;28;20038;-82
2022/09/03 00:35:01;;;;;;;8.95;3.72;;;14.30;99.90;;;;;;20731512;28;20099;-83
2022/09/03 00:45:08;;;;;;;8.95;3.72;;;14.40;99.90;;;;;;20981295;23;20056;-81
2022/09/03 00:55:12;;;;;;;10.85;3.78;;;14.50;99.90;;;;;;20974820;28;20500;-81
2022/09/03 01:05:35;;;;;;;4.70;3.60;;;14.30;99.90;;;;;;20973514;28;20040;-81
2022/09/03 01:16:13;;;;;;;6.90;4.18;;;14.00;99.90;;;;;;20990391;28;20393;-81
2022/09/03 01:26:39;;;;;;;7.60;5.00;;;14.10;99.90;;;;;;20971932;28;20032;-81
2022/09/03 01:36:57;;;;;;;9.30;5.70;;;14.20;99.90;;;;;;20970482;28;20382;-81
2022/09/03 01:47:14;;;;;;;13.55;6.38;;;14.10;99.90;;;;;;20970669;28;20040;-80
2022/09/03 01:57:39;;;;;;;9.10;4.68;;;14.10;99.90;;;;;;20989034;28;20044;-80
2022/09/03 02:07:43;;;;;;;6.32;4.45;;;14.20;99.90;;;;;;20988738;28;20032;-81
2022/09/03 02:17:46;;;;;;;5.68;4.10;;;14.30;99.90;;;;;;20987093;28;20048;-80
2022/09/03 02:27:49;;;;;;;7.10;4.88;;;14.20;99.90;;;;;;20969581;28;20602;-81
2022/09/03 02:37:50;;;;;;;7.15;4.57;;;14.20;99.90;;;;;;20987199;28;20036;-81
2022/09/03 02:47:57;;;;;;;11.03;4.93;;;14.20;99.90;;;;;;20969360;28;20048;-81
2022/09/03 02:57:59;;;;;;;5.95;4.50;;;14.40;99.90;;;;;;20998822;28;20039;-82
2022/09/03 03:08:00;;;;;;;;;;;14.40;99.90;;;;;;20984333;28;20102;-81
2022/09/03 03:18:01;;;;;;;6.30;4.40;;;14.30;99.90;;;;;;21000907;28;19920;-80
2022/09/03 03:28:03;;;;;;;7.53;4.83;;;14.40;99.90;;;;;;21000180;28;20044;-81
2022/09/03 03:38:04;;;;;;;7.55;5.57;;;14.40;99.90;;;;;;20980510;28;20040;-80
2022/09/03 03:48:04;;;;;;;6.37;5.23;;;14.30;99.90;;;;;;20979964;28;20037;-81
2022/09/03 03:58:05;;;;;;;11.00;7.27;;;14.40;99.90;;;;;;20997422;28;20398;-80
2022/09/03 04:08:06;;;;;;;13.67;7.90;;;14.50;99.90;;;;;;20996644;28;20028;-80
2022/09/03 04:18:07;;;;;;;8.05;6.00;;;14.60;99.90;;;;;;20996016;28;20037;-80
2022/09/03 04:28:08;;;;;;;11.93;7.67;;;14.60;99.90;;;;;;20997975;28;20060;-81
2022/09/03 04:38:09;;;;;;;10.40;6.67;;;14.50;99.90;;;;;;21000627;28;20041;-80
2022/09/03 04:48:12;;;;;;;11.77;6.82;;;14.50;99.90;;;;;;20981338;28;20048;-81
2022/09/03 04:58:13;;;;;;;10.05;6.32;;;14.60;99.90;;;;;;20980167;28;20036;-81
2022/09/03 05:08:14;;;;;;;13.37;7.37;;;14.60;99.90;;;;;;20980006;28;20100;-80
2022/09/03 05:18:14;;;;;;;13.50;7.60;;;14.60;99.90;;;;;;20994322;28;20445;-80
2022/09/03 05:28:15;;;;;;;13.47;8.57;;;14.60;99.90;;;;;;20994690;28;20127;-81
2022/09/03 05:38:16;;;;;;;16.17;9.10;;;14.60;99.90;;;;;;20994571;28;20036;-83
2022/09/03 05:48:17;;;;;;;19.77;11.67;;;14.70;99.90;;;;;;20998320;28;20033;-80
2022/09/03 05:58:18;;;;;;;17.83;10.03;;;14.70;99.90;;;;;;20995840;28;20649;-81
2022/09/03 06:08:20;;;;;;;18.87;9.73;;;14.70;99.90;;;;;;20998201;28;20037;-81
2022/09/03 06:18:21;;;;;;;15.73;8.82;;;14.80;99.90;;;;;;21000232;28;20067;-82
2022/09/03 06:28:25;;;;;;;13.40;8.88;;;14.90;99.90;;;;;;21000772;28;20036;-83
2022/09/03 06:38:28;;;;;;;12.13;7.00;;;15.00;99.90;;;;;;21010077;22;20139;-75
2022/09/03 06:48:31;;;;;;;11.82;7.90;;;15.20;99.90;;;;;;21005487;28;20040;-75
2022/09/03 06:58:37;;;;;;;9.40;6.03;;;15.60;99.90;;;;;;21004931;28;20044;-76
2022/09/03 07:08:38;;;;;;;11.10;6.15;;;15.90;99.90;;;;;;21004878;28;20029;-76
2022/09/03 07:18:39;;;;;;;9.57;7.53;;;16.10;99.90;;;;;;21008154;28;20055;-75
2022/09/03 07:28:41;;;;;;;15.40;8.53;;;16.70;99.90;;;;;;20977791;28;20119;-75
2022/09/03 07:38:43;;;;;;;10.43;6.95;;;17.00;99.90;;;;;;20999650;28;20095;-75
2022/09/03 07:48:46;;;;;;;11.45;7.10;;;18.10;99.90;;;;;;21000780;28;20037;-75
2022/09/03 07:58:47;;;;;;;8.95;5.80;;;17.90;99.90;;;;;;20982272;28;20032;-76
2022/09/03 08:08:52;;;;;;;6.83;4.50;;;18.60;99.90;;;;;;21004586;28;20094;-78
2022/09/03 08:18:53;;;;;;;7.82;4.13;;;19.40;99.90;;;;;;21035073;28;20041;-79
2022/09/03 08:28:54;;;;;;;5.23;3.50;;;20.40;99.90;;;;;;21040502;28;20082;-79
2022/09/03 08:38:57;;;;;;;6.73;2.77;;;20.50;99.90;;;;;;21034792;28;20456;-79
2022/09/03 08:48:59;;;;;;;5.57;3.10;;;21.80;99.90;;;;;;21029755;28;20051;-78
2022/09/03 08:59:00;;;;;;;3.40;2.75;;;21.50;99.90;;;;;;21006899;28;20028;-78
2022/09/03 09:09:11;;;;;;;5.68;2.85;;;20.30;99.90;;;;;;21044958;28;20033;-79
2022/09/03 09:19:17;;;;;;;8.77;2.38;;;18.50;99.90;;;;;;21024307;28;20025;-80
2022/09/03 09:29:17;;;;;;;7.15;2.20;;;18.00;99.90;;;;;;20953156;28;20048;-80
2022/09/03 09:39:19;;;;;;;6.87;2.80;;;17.90;99.90;;;;;;20940399;28;20086;-78
2022/09/03 09:49:33;;;;;;;5.43;3.25;;;17.90;99.90;;;;;;20950983;28;20041;-79
2022/09/03 09:59:36;;;;;;;5.10;3.40;;;18.00;99.90;;;;;;20960881;28;20037;-79
2022/09/03 10:09:37;;;;;;;6.45;3.53;;;18.00;99.90;;;;;;20952782;28;20041;-80
2022/09/03 10:30:22;;;;;;;4.03;2.40;;;17.60;99.90;;;;;;20935302;28;20037;-77
2022/09/03 10:40:48;;;;;;;2.03;1.70;;;17.60;99.90;;;;;;20936540;28;20044;-77
2022/09/03 10:51:03;;;;;;;5.47;2.05;;;17.40;99.90;;;;;;20955417;28;20040;-76
2022/09/03 11:01:34;;;;;;;4.82;2.40;;;17.90;99.90;;;;;;20910534;28;20076;-75
2022/09/03 11:11:45;;;;;;;5.25;1.83;;;18.80;99.90;;;;;;20899408;28;20394;-79
2022/09/03 11:21:47;;;;;;;2.35;1.30;;;18.90;99.90;;;;;;20933451;28;20041;-77
2022/09/03 11:31:58;;;;;;;1.92;1.02;;;19.20;99.90;;;;;;20922247;28;20123;-77
2022/09/03 11:42:22;;;;;;;0.90;0.60;;;20.10;99.90;;;;;;20917844;28;20136;-76
2022/09/03 11:52:28;;;;;;;1.08;0.80;;;21.80;99.90;;;;;;20914775;28;20052;-76
2022/09/03 12:02:34;;;;;;;2.83;0.70;;;22.60;99.90;;;;;;20899003;28;20068;-77
2022/09/03 12:12:53;;;;;;;1.30;0.80;;;23.80;99.90;;;;;;20916050;28;20048;-77
2022/09/03 12:22:55;;;;;;;4.47;0.85;;;23.50;99.90;;;;;;20896784;28;20487;-77
2022/09/03 12:33:07;;;;;;;5.45;1.17;;;24.90;99.90;;;;;;20895999;28;20519;-77
2022/09/03 12:43:13;;;;;;;1.27;0.93;;;25.20;99.90;;;;;;21012157;22;20072;-77
2022/09/03 12:53:24;;;;;;;1.10;0.77;;;24.40;99.90;;;;;;21086206;28;20109;-78
2022/09/03 13:03:40;;;;;;;1.17;0.90;;;24.20;99.90;;;;;;21074811;28;20128;-77
2022/09/03 13:14:17;;;;;;;2.88;1.10;;;25.00;99.90;;;;;;21080960;28;20043;-77
2022/09/03 13:24:48;;;;;;;1.98;0.80;;;24.30;99.90;;;;;;21067668;28;20098;-77
2022/09/03 13:34:58;;;;;;;3.00;1.50;;;24.80;99.90;;;;;;21080731;28;20038;-77
2022/09/03 13:45:21;;;;;;;0.80;0.80;;;26.80;99.90;;;;;;21062664;28;20066;-78
2022/09/03 13:55:46;;;;;;;1.30;0.90;;;25.00;99.90;;;;;;21060734;28;20043;-78
2022/09/03 14:06:12;;;;;;;2.03;1.10;;;25.10;99.90;;;;;;21078618;28;20386;-78
2022/09/03 14:16:46;;;;;;;2.47;0.70;;;25.80;99.90;;;;;;21078156;28;20042;-77
2022/09/03 14:26:53;;;;;;;2.80;1.00;;;26.30;99.90;;;;;;21075918;28;20398;-77
2022/09/03 14:37:24;;;;;;;1.70;1.10;;;25.80;99.90;;;;;;21074684;28;20506;-77
2022/09/03 14:47:54;;;;;;;2.53;1.00;;;25.70;99.90;;;;;;21076733;28;20040;-77
2022/09/03 14:58:25;;;;;;;1.65;0.98;;;25.90;99.90;;;;;;21089861;28;20036;-77
2022/09/03 15:08:54;;;;;;;1.65;0.90;;;26.80;99.90;;;;;;21053594;28;20519;-77
2022/09/03 15:19:13;;;;;;;2.90;1.10;;;25.60;99.90;;;;;;21086882;28;20050;-77
2022/09/03 15:29:29;;;;;;;1.35;1.00;;;24.30;99.90;;;;;;21085427;28;20036;-77
2022/09/03 15:39:35;;;;;;;1.73;1.40;;;23.40;99.90;;;;;;21084524;28;20047;-77
2022/09/03 15:49:58;;;;;;;4.00;1.25;;;23.20;99.90;;;;;;21083771;28;20036;-77
2022/09/03 16:00:01;;;;;;;1.67;1.15;;;22.90;99.90;;;;;;21082240;28;20047;-77
2022/09/03 16:10:19;;;;;;;4.90;2.00;;;22.90;99.90;;;;;;21096749;28;20063;-79
2022/09/03 16:20:30;;;;;;;5.30;1.90;;;22.00;99.90;;;;;;21079503;28;20047;-76
2022/09/03 16:31:06;;;;;;;2.40;1.80;;;21.20;99.90;;;;;;21069337;28;20089;-78
2022/09/03 16:41:22;;;;;;;2.60;2.03;;;20.20;99.90;;;;;;21011705;28;20068;-77
2022/09/03 16:51:51;;;;;;;5.43;2.15;;;20.50;99.90;;;;;;21015276;28;20035;-79
2022/09/03 17:01:52;;;;;;;6.03;3.17;;;20.50;99.90;;;;;;21087987;28;20040;-76
2022/09/03 17:11:56;;;;;;;6.83;2.73;;;20.50;99.90;;;;;;21085971;28;20043;-77
2022/09/03 17:22:03;;;;;;;5.15;3.08;;;20.40;99.90;;;;;;21085876;28;20043;-77
2022/09/03 17:32:31;;;;;;;4.78;2.45;;;20.20;99.90;;;;;;21083348;28;20518;-78
2022/09/03 17:42:47;;;;;;;4.40;2.70;;;19.90;99.90;;;;;;21076107;28;20039;-78
2022/09/03 17:52:54;;;;;;;7.97;2.70;;;19.60;99.90;;;;;;21083068;28;20044;-77
2022/09/03 18:03:10;;;;;;;7.55;5.25;;;19.40;99.90;;;;;;21062148;28;20068;-78
2022/09/03 18:13:29;;;;;;;5.38;3.30;;;18.80;99.90;;;;;;21058377;28;20036;-77
2022/09/03 21:24:03;;;;;;;;;;;;;;;;;;;;;
2022/09/03 21:58:11;;;;;;;10.38;3.47;;;15.60;99.90;;;;;;20110472;29;20050;-77
2022/09/03 22:08:33;;;;;;;8.43;3.13;;;15.60;99.90;;;;;;20183733;29;20041;-77
2022/09/03 22:18:35;;;;;;;4.40;3.03;;;15.50;99.90;;;;;;20571772;28;20246;-78
2022/09/03 22:28:48;;;;;;;8.07;3.53;;;15.50;99.90;;;;;;20746444;28;20052;-78
2022/09/03 23:48:00;;;;;;;8.23;3.50;;;15.30;99.90;;;;;;20739570;28;20049;-76
2022/09/03 23:58:09;;;;;;;6.25;3.17;;;15.20;99.90;;;;;;20754108;28;20496;-76
